sensor_id;sensor_type;location;lat;lon;timestamp;P1;durP1;ratioP1;P2;durP2;ratioP2
27269;SDS011;14769;56.934;24.176;2023-02-13T11:16:07;13.68;;;3.70;;
27269;SDS011;14769;56.934;24.176;2023-02-13T11:17:11;13.00;;;3.60;;
27269;SDS011;14769;56.934;24.176;2023-02-13T11:19:50;14.75;;;3.65;;
27269;SDS011;14769;56.934;24.176;2023-02-13T11:21:00;16.58;;;3.97;;
27269;SDS011;14769;56.934;24.176;2023-02-13T11:22:29;13.25;;;3.50;;
27269;SDS011;14769;56.934;24.176;2023-02-13T11:23:43;12.23;;;4.00;;
27269;SDS011;14769;56.934;24.176;2023-02-13T11:24:52;14.95;;;3.90;;
27269;SDS011;14769;56.934;24.176;2023-02-13T11:25:58;12.15;;;3.70;;
27269;SDS011;14769;56.934;24.176;2023-02-13T11:27:03;8.32;;;3.20;;
27269;SDS011;14769;56.934;24.176;2023-02-13T11:28:13;8.65;;;3.10;;
27269;SDS011;14769;56.934;24.176;2023-02-13T11:29:31;9.40;;;3.60;;
27269;SDS011;14769;56.934;24.176;2023-02-13T11:30:35;13.35;;;3.53;;
27269;SDS011;14769;56.934;24.176;2023-02-13T11:31:38;20.25;;;4.00;;
27269;SDS011;14769;56.934;24.176;2023-02-13T11:32:40;12.68;;;4.18;;
27269;SDS011;14769;56.934;24.176;2023-02-13T11:33:42;12.90;;;4.10;;
27269;SDS011;14769;56.934;24.176;2023-02-13T11:34:45;12.40;;;3.60;;
27269;SDS011;14769;56.934;24.176;2023-02-13T11:35:48;9.85;;;3.72;;
27269;SDS011;14769;56.934;24.176;2023-02-13T11:36:50;10.30;;;3.75;;
27269;SDS011;14769;56.934;24.176;2023-02-13T11:39:28;10.98;;;3.30;;
27269;SDS011;14769;56.934;24.176;2023-02-13T11:40:30;13.70;;;3.83;;
27269;SDS011;14769;56.934;24.176;2023-02-13T11:41:38;9.40;;;3.90;;
27269;SDS011;14769;56.934;24.176;2023-02-13T11:42:42;13.15;;;4.32;;
27269;SDS011;14769;56.934;24.176;2023-02-13T11:43:49;6.65;;;2.97;;
27269;SDS011;14769;56.934;24.176;2023-02-13T11:45:20;8.68;;;2.67;;
27269;SDS011;14769;56.934;24.176;2023-02-13T11:46:25;7.53;;;3.22;;
27269;SDS011;14769;56.934;24.176;2023-02-13T11:47:33;7.95;;;3.08;;
27269;SDS011;14769;56.934;24.176;2023-02-13T11:48:38;7.13;;;3.00;;
27269;SDS011;14769;56.934;24.176;2023-02-13T11:49:44;13.18;;;3.60;;
27269;SDS011;14769;56.934;24.176;2023-02-13T11:50:51;12.80;;;2.92;;
27269;SDS011;14769;56.934;24.176;2023-02-13T11:51:54;12.27;;;2.97;;
27269;SDS011;14769;56.934;24.176;2023-02-13T11:53:06;6.90;;;2.92;;
27269;SDS011;14769;56.934;24.176;2023-02-13T11:54:28;7.13;;;2.70;;
27269;SDS011;14769;56.934;24.176;2023-02-13T11:55:38;10.15;;;2.80;;
27269;SDS011;14769;56.934;24.176;2023-02-13T11:56:53;10.27;;;2.83;;
27269;SDS011;14769;56.934;24.176;2023-02-13T11:59:11;8.82;;;2.60;;
27269;SDS011;14769;56.934;24.176;2023-02-13T12:01:40;8.60;;;2.60;;
27269;SDS011;14769;56.934;24.176;2023-02-13T12:02:44;11.48;;;2.65;;
27269;SDS011;14769;56.934;24.176;2023-02-13T12:05:22;7.78;;;2.58;;
27269;SDS011;14769;56.934;24.176;2023-02-13T12:06:26;6.63;;;2.58;;
27269;SDS011;14769;56.934;24.176;2023-02-13T12:07:29;8.13;;;2.50;;
27269;SDS011;14769;56.934;24.176;2023-02-13T12:08:34;13.57;;;3.00;;
27269;SDS011;14769;56.934;24.176;2023-02-13T12:09:40;10.05;;;2.95;;
27269;SDS011;14769;56.934;24.176;2023-02-13T12:10:44;8.68;;;2.75;;
27269;SDS011;14769;56.934;24.176;2023-02-13T12:11:47;4.72;;;1.98;;
27269;SDS011;14769;56.934;24.176;2023-02-13T12:13:13;9.05;;;2.63;;
27269;SDS011;14769;56.934;24.176;2023-02-13T12:14:41;13.63;;;3.10;;
27269;SDS011;14769;56.934;24.176;2023-02-13T12:15:45;8.90;;;3.45;;
27269;SDS011;14769;56.934;24.176;2023-02-13T12:16:56;7.95;;;2.97;;
27269;SDS011;14769;56.934;24.176;2023-02-13T12:18:08;6.15;;;2.75;;
27269;SDS011;14769;56.934;24.176;2023-02-13T12:19:17;8.82;;;2.63;;
27269;SDS011;14769;56.934;24.176;2023-02-13T12:20:24;8.50;;;2.45;;
27269;SDS011;14769;56.934;24.176;2023-02-13T12:21:44;8.63;;;2.70;;
27269;SDS011;14769;56.934;24.176;2023-02-13T12:24:43;8.68;;;2.30;;
27269;SDS011;14769;56.934;24.176;2023-02-13T12:30:29;5.75;;;2.35;;
27269;SDS011;14769;56.934;24.176;2023-02-13T12:35:26;9.88;;;2.30;;
27269;SDS011;14769;56.934;24.176;2023-02-13T12:38:06;6.25;;;2.63;;
27269;SDS011;14769;56.934;24.176;2023-02-13T12:39:32;8.60;;;2.63;;
27269;SDS011;14769;56.934;24.176;2023-02-13T12:40:58;6.30;;;2.38;;
27269;SDS011;14769;56.934;24.176;2023-02-13T12:42:12;12.18;;;2.83;;
27269;SDS011;14769;56.934;24.176;2023-02-13T12:43:48;8.77;;;2.92;;
27269;SDS011;14769;56.934;24.176;2023-02-13T12:46:48;6.22;;;2.38;;
27269;SDS011;14769;56.934;24.176;2023-02-13T12:52:56;4.40;;;2.25;;
27269;SDS011;14769;56.934;24.176;2023-02-13T12:58:39;3.95;;;2.22;;
27269;SDS011;14769;56.934;24.176;2023-02-13T15:54:25;9.68;;;2.72;;
27269;SDS011;14769;56.934;24.176;2023-02-13T15:55:31;9.15;;;2.28;;
27269;SDS011;14769;56.934;24.176;2023-02-13T15:56:36;5.68;;;2.10;;
27269;SDS011;14769;56.934;24.176;2023-02-13T15:57:38;5.65;;;1.90;;
27269;SDS011;14769;56.934;24.176;2023-02-13T15:58:41;8.70;;;1.85;;
27269;SDS011;14769;56.934;24.176;2023-02-13T15:59:43;7.05;;;1.83;;
27269;SDS011;14769;56.934;24.176;2023-02-13T16:00:46;7.85;;;2.20;;
27269;SDS011;14769;56.934;24.176;2023-02-13T16:01:47;5.35;;;2.17;;
27269;SDS011;14769;56.934;24.176;2023-02-13T16:02:52;9.20;;;2.50;;
27269;SDS011;14769;56.934;24.176;2023-02-13T16:04:02;7.20;;;2.67;;
27269;SDS011;14769;56.934;24.176;2023-02-13T16:05:08;9.13;;;2.58;;
27269;SDS011;14769;56.934;24.176;2023-02-13T16:06:16;6.05;;;2.40;;
27269;SDS011;14769;56.934;24.176;2023-02-13T16:07:21;8.95;;;2.45;;
27269;SDS011;14769;56.934;24.176;2023-02-13T16:08:25;7.38;;;2.45;;
27269;SDS011;14769;56.934;24.176;2023-02-13T16:09:33;9.57;;;2.70;;
27269;SDS011;14769;56.934;24.176;2023-02-13T16:10:36;7.90;;;2.67;;
27269;SDS011;14769;56.934;24.176;2023-02-13T16:11:38;8.75;;;2.97;;
27269;SDS011;14769;56.934;24.176;2023-02-13T16:12:45;11.77;;;2.38;;
27269;SDS011;14769;56.934;24.176;2023-02-13T16:15:21;6.85;;;2.38;;
27269;SDS011;14769;56.934;24.176;2023-02-13T16:16:27;7.13;;;2.42;;
27269;SDS011;14769;56.934;24.176;2023-02-13T16:17:34;9.38;;;2.53;;
27269;SDS011;14769;56.934;24.176;2023-02-13T16:18:39;7.50;;;2.20;;
27269;SDS011;14769;56.934;24.176;2023-02-13T16:21:56;5.32;;;2.10;;
27269;SDS011;14769;56.934;24.176;2023-02-13T16:23:02;6.35;;;1.83;;
27269;SDS011;14769;56.934;24.176;2023-02-13T16:24:12;7.55;;;1.90;;
27269;SDS011;14769;56.934;24.176;2023-02-13T16:25:24;8.82;;;2.47;;
27269;SDS011;14769;56.934;24.176;2023-02-13T16:26:46;9.07;;;2.05;;
27269;SDS011;14769;56.934;24.176;2023-02-13T16:27:51;6.80;;;2.00;;
27269;SDS011;14769;56.934;24.176;2023-02-13T16:28:57;5.93;;;2.22;;
27269;SDS011;14769;56.934;24.176;2023-02-13T16:29:59;9.80;;;2.55;;
27269;SDS011;14769;56.934;24.176;2023-02-13T16:31:11;9.52;;;2.20;;
27269;SDS011;14769;56.934;24.176;2023-02-13T16:32:19;8.75;;;2.50;;
27269;SDS011;14769;56.934;24.176;2023-02-13T16:33:28;7.50;;;2.67;;
27269;SDS011;14769;56.934;24.176;2023-02-13T16:34:32;8.65;;;2.25;;
27269;SDS011;14769;56.934;24.176;2023-02-13T16:35:34;9.50;;;2.58;;
27269;SDS011;14769;56.934;24.176;2023-02-13T16:36:38;6.47;;;2.05;;
27269;SDS011;14769;56.934;24.176;2023-02-13T16:37:47;7.93;;;2.00;;
27269;SDS011;14769;56.934;24.176;2023-02-13T16:38:56;5.40;;;2.45;;
27269;SDS011;14769;56.934;24.176;2023-02-13T16:41:35;8.55;;;2.20;;
27269;SDS011;14769;56.934;24.176;2023-02-13T16:42:37;8.52;;;1.92;;
27269;SDS011;14769;56.934;24.176;2023-02-13T16:45:39;7.28;;;2.10;;
27269;SDS011;14769;56.934;24.176;2023-02-13T16:46:24;8.55;;;2.05;;
27269;SDS011;14769;56.934;24.176;2023-02-13T16:47:28;8.90;;;2.05;;
27269;SDS011;14769;56.934;24.176;2023-02-13T16:48:30;7.00;;;2.25;;
27269;SDS011;14769;56.934;24.176;2023-02-13T16:49:32;10.02;;;2.85;;
27269;SDS011;14769;56.934;24.176;2023-02-13T16:50:36;9.27;;;2.33;;
27269;SDS011;14769;56.934;24.176;2023-02-13T16:51:50;6.10;;;1.95;;
27269;SDS011;14769;56.934;24.176;2023-02-13T16:53:01;9.90;;;2.28;;
27269;SDS011;14769;56.934;24.176;2023-02-13T16:55:13;4.45;;;2.05;;
27269;SDS011;14769;56.934;24.176;2023-02-13T16:56:16;7.88;;;1.83;;
27269;SDS011;14769;56.934;24.176;2023-02-13T16:57:19;8.30;;;2.13;;
27269;SDS011;14769;56.934;24.176;2023-02-13T16:58:27;6.90;;;1.98;;
27269;SDS011;14769;56.934;24.176;2023-02-13T16:59:31;6.10;;;1.70;;
27269;SDS011;14769;56.934;24.176;2023-02-13T17:00:40;7.32;;;2.53;;
27269;SDS011;14769;56.934;24.176;2023-02-13T17:01:42;5.65;;;1.95;;
27269;SDS011;14769;56.934;24.176;2023-02-13T17:02:44;7.15;;;2.00;;
27269;SDS011;14769;56.934;24.176;2023-02-13T17:03:47;9.05;;;2.33;;
27269;SDS011;14769;56.934;24.176;2023-02-13T17:05:53;5.35;;;2.03;;
27269;SDS011;14769;56.934;24.176;2023-02-13T17:06:55;8.20;;;2.25;;
27269;SDS011;14769;56.934;24.176;2023-02-13T17:07:57;7.60;;;2.40;;
27269;SDS011;14769;56.934;24.176;2023-02-13T17:09:01;7.68;;;2.00;;
27269;SDS011;14769;56.934;24.176;2023-02-13T17:10:05;6.03;;;1.92;;
27269;SDS011;14769;56.934;24.176;2023-02-13T17:11:17;6.03;;;1.75;;
27269;SDS011;14769;56.934;24.176;2023-02-13T17:12:20;7.20;;;1.80;;
27269;SDS011;14769;56.934;24.176;2023-02-13T17:13:23;7.50;;;1.75;;
27269;SDS011;14769;56.934;24.176;2023-02-13T17:14:27;11.02;;;2.10;;
27269;SDS011;14769;56.934;24.176;2023-02-13T17:15:29;6.63;;;2.00;;
27269;SDS011;14769;56.934;24.176;2023-02-13T17:16:32;7.97;;;2.00;;
27269;SDS011;14769;56.934;24.176;2023-02-13T17:17:34;4.95;;;1.63;;
27269;SDS011;14769;56.934;24.176;2023-02-13T17:18:36;5.60;;;2.03;;
27269;SDS011;14769;56.934;24.176;2023-02-13T17:19:38;7.68;;;1.73;;
27269;SDS011;14769;56.934;24.176;2023-02-13T17:20:41;9.00;;;2.20;;
27269;SDS011;14769;56.934;24.176;2023-02-13T17:21:45;5.40;;;1.77;;
27269;SDS011;14769;56.934;24.176;2023-02-13T17:22:48;7.82;;;2.38;;
27269;SDS011;14769;56.934;24.176;2023-02-13T17:23:53;4.38;;;1.70;;
27269;SDS011;14769;56.934;24.176;2023-02-13T17:24:56;10.30;;;2.50;;
27269;SDS011;14769;56.934;24.176;2023-02-13T17:25:58;4.60;;;1.70;;
27269;SDS011;14769;56.934;24.176;2023-02-13T17:27:00;6.88;;;2.08;;
27269;SDS011;14769;56.934;24.176;2023-02-13T17:28:13;7.25;;;1.80;;
27269;SDS011;14769;56.934;24.176;2023-02-13T17:29:17;10.50;;;1.92;;
27269;SDS011;14769;56.934;24.176;2023-02-13T17:30:22;4.75;;;1.70;;
27269;SDS011;14769;56.934;24.176;2023-02-13T17:31:26;8.80;;;2.00;;
27269;SDS011;14769;56.934;24.176;2023-02-13T17:32:29;5.70;;;1.75;;
27269;SDS011;14769;56.934;24.176;2023-02-13T17:33:31;7.53;;;2.35;;
27269;SDS011;14769;56.934;24.176;2023-02-13T17:34:35;7.18;;;1.60;;
27269;SDS011;14769;56.934;24.176;2023-02-13T17:35:37;11.98;;;2.20;;
27269;SDS011;14769;56.934;24.176;2023-02-13T17:36:39;4.93;;;1.63;;
27269;SDS011;14769;56.934;24.176;2023-02-13T17:37:41;6.72;;;1.92;;
27269;SDS011;14769;56.934;24.176;2023-02-13T17:38:45;6.85;;;1.73;;
27269;SDS011;14769;56.934;24.176;2023-02-13T17:39:47;7.65;;;2.08;;
27269;SDS011;14769;56.934;24.176;2023-02-13T17:40:49;7.50;;;1.70;;
27269;SDS011;14769;56.934;24.176;2023-02-13T17:41:52;6.00;;;1.63;;
27269;SDS011;14769;56.934;24.176;2023-02-13T17:42:55;9.07;;;1.98;;
27269;SDS011;14769;56.934;24.176;2023-02-13T17:43:58;7.43;;;1.80;;
27269;SDS011;14769;56.934;24.176;2023-02-13T17:45:01;8.43;;;1.75;;
27269;SDS011;14769;56.934;24.176;2023-02-13T17:46:03;6.13;;;1.55;;
27269;SDS011;14769;56.934;24.176;2023-02-13T17:47:05;7.03;;;1.70;;
27269;SDS011;14769;56.934;24.176;2023-02-13T17:48:07;7.65;;;1.80;;
27269;SDS011;14769;56.934;24.176;2023-02-13T17:49:09;7.85;;;2.40;;
27269;SDS011;14769;56.934;24.176;2023-02-13T17:50:12;8.10;;;1.73;;
27269;SDS011;14769;56.934;24.176;2023-02-13T17:51:16;3.10;;;1.25;;
27269;SDS011;14769;56.934;24.176;2023-02-13T17:52:19;8.50;;;1.85;;
27269;SDS011;14769;56.934;24.176;2023-02-13T17:53:26;5.68;;;1.73;;
27269;SDS011;14769;56.934;24.176;2023-02-13T17:54:33;4.30;;;1.63;;
27269;SDS011;14769;56.934;24.176;2023-02-13T17:55:36;6.53;;;1.80;;
27269;SDS011;14769;56.934;24.176;2023-02-13T17:56:37;7.20;;;1.63;;
27269;SDS011;14769;56.934;24.176;2023-02-13T17:57:39;9.32;;;1.75;;
27269;SDS011;14769;56.934;24.176;2023-02-13T17:58:41;6.93;;;1.50;;
27269;SDS011;14769;56.934;24.176;2023-02-13T17:59:43;7.47;;;2.00;;
27269;SDS011;14769;56.934;24.176;2023-02-13T18:00:46;5.90;;;2.65;;
27269;SDS011;14769;56.934;24.176;2023-02-13T18:01:49;10.52;;;1.80;;
27269;SDS011;14769;56.934;24.176;2023-02-13T18:02:51;8.65;;;2.13;;
27269;SDS011;14769;56.934;24.176;2023-02-13T18:03:53;7.35;;;1.75;;
27269;SDS011;14769;56.934;24.176;2023-02-13T18:04:55;8.20;;;2.30;;
27269;SDS011;14769;56.934;24.176;2023-02-13T18:05:57;6.60;;;1.92;;
27269;SDS011;14769;56.934;24.176;2023-02-13T18:06:59;7.13;;;2.28;;
27269;SDS011;14769;56.934;24.176;2023-02-13T18:08:01;7.05;;;1.80;;
27269;SDS011;14769;56.934;24.176;2023-02-13T18:09:03;10.57;;;2.10;;
27269;SDS011;14769;56.934;24.176;2023-02-13T18:10:10;7.65;;;1.60;;
27269;SDS011;14769;56.934;24.176;2023-02-13T18:11:16;9.82;;;2.30;;
27269;SDS011;14769;56.934;24.176;2023-02-13T18:12:22;5.07;;;2.30;;
27269;SDS011;14769;56.934;24.176;2023-02-13T18:13:24;5.35;;;2.10;;
27269;SDS011;14769;56.934;24.176;2023-02-13T18:14:28;9.45;;;2.40;;
27269;SDS011;14769;56.934;24.176;2023-02-13T18:15:32;6.80;;;2.30;;
27269;SDS011;14769;56.934;24.176;2023-02-13T18:16:35;3.60;;;1.70;;
27269;SDS011;14769;56.934;24.176;2023-02-13T18:17:38;7.72;;;2.20;;
27269;SDS011;14769;56.934;24.176;2023-02-13T18:18:40;7.40;;;1.90;;
27269;SDS011;14769;56.934;24.176;2023-02-13T18:19:42;4.90;;;2.25;;
27269;SDS011;14769;56.934;24.176;2023-02-13T18:20:43;5.93;;;2.20;;
27269;SDS011;14769;56.934;24.176;2023-02-13T18:21:45;7.85;;;3.15;;
27269;SDS011;14769;56.934;24.176;2023-02-13T18:22:47;8.50;;;2.67;;
27269;SDS011;14769;56.934;24.176;2023-02-13T18:23:52;5.40;;;2.33;;
27269;SDS011;14769;56.934;24.176;2023-02-13T18:24:54;5.68;;;2.75;;
27269;SDS011;14769;56.934;24.176;2023-02-13T18:26:02;7.45;;;2.67;;
27269;SDS011;14769;56.934;24.176;2023-02-13T18:27:06;5.45;;;2.83;;
27269;SDS011;14769;56.934;24.176;2023-02-13T18:28:08;7.22;;;3.08;;
27269;SDS011;14769;56.934;24.176;2023-02-13T18:29:10;8.45;;;3.10;;
27269;SDS011;14769;56.934;24.176;2023-02-13T18:30:13;9.05;;;2.67;;
27269;SDS011;14769;56.934;24.176;2023-02-13T18:31:18;6.97;;;2.55;;
27269;SDS011;14769;56.934;24.176;2023-02-13T18:32:20;7.47;;;2.83;;
27269;SDS011;14769;56.934;24.176;2023-02-13T18:33:22;6.47;;;2.30;;
27269;SDS011;14769;56.934;24.176;2023-02-13T18:34:24;6.32;;;1.92;;
27269;SDS011;14769;56.934;24.176;2023-02-13T18:35:26;6.35;;;2.42;;
27269;SDS011;14769;56.934;24.176;2023-02-13T18:36:28;7.75;;;2.50;;
27269;SDS011;14769;56.934;24.176;2023-02-13T18:37:30;8.10;;;2.72;;
27269;SDS011;14769;56.934;24.176;2023-02-13T18:38:33;6.30;;;2.28;;
27269;SDS011;14769;56.934;24.176;2023-02-13T18:39:35;9.50;;;2.70;;
27269;SDS011;14769;56.934;24.176;2023-02-13T18:40:37;7.25;;;2.40;;
27269;SDS011;14769;56.934;24.176;2023-02-13T18:41:39;6.80;;;2.42;;
27269;SDS011;14769;56.934;24.176;2023-02-13T18:42:41;9.02;;;2.95;;
27269;SDS011;14769;56.934;24.176;2023-02-13T18:43:44;7.90;;;2.55;;
27269;SDS011;14769;56.934;24.176;2023-02-13T18:44:46;6.65;;;3.10;;
27269;SDS011;14769;56.934;24.176;2023-02-13T18:45:48;9.48;;;3.03;;
27269;SDS011;14769;56.934;24.176;2023-02-13T18:46:50;11.82;;;2.92;;
27269;SDS011;14769;56.934;24.176;2023-02-13T18:47:51;7.13;;;2.60;;
27269;SDS011;14769;56.934;24.176;2023-02-13T18:48:53;8.40;;;2.40;;
27269;SDS011;14769;56.934;24.176;2023-02-13T18:49:55;10.13;;;2.50;;
27269;SDS011;14769;56.934;24.176;2023-02-13T18:50:59;9.35;;;2.70;;
27269;SDS011;14769;56.934;24.176;2023-02-13T18:52:01;8.68;;;2.63;;
27269;SDS011;14769;56.934;24.176;2023-02-13T18:53:03;6.03;;;1.95;;
27269;SDS011;14769;56.934;24.176;2023-02-13T18:54:06;6.95;;;2.20;;
27269;SDS011;14769;56.934;24.176;2023-02-13T18:55:08;6.35;;;1.80;;
27269;SDS011;14769;56.934;24.176;2023-02-13T18:56:10;7.85;;;2.28;;
27269;SDS011;14769;56.934;24.176;2023-02-13T18:57:12;8.32;;;2.90;;
27269;SDS011;14769;56.934;24.176;2023-02-13T18:58:15;7.75;;;2.40;;
27269;SDS011;14769;56.934;24.176;2023-02-13T18:59:17;7.25;;;2.10;;
27269;SDS011;14769;56.934;24.176;2023-02-13T19:00:19;11.60;;;2.70;;
27269;SDS011;14769;56.934;24.176;2023-02-13T19:01:22;7.35;;;1.95;;
27269;SDS011;14769;56.934;24.176;2023-02-13T19:02:24;6.57;;;2.33;;
27269;SDS011;14769;56.934;24.176;2023-02-13T19:03:26;10.15;;;2.58;;
27269;SDS011;14769;56.934;24.176;2023-02-13T19:04:28;6.07;;;2.10;;
27269;SDS011;14769;56.934;24.176;2023-02-13T19:05:30;10.88;;;3.03;;
27269;SDS011;14769;56.934;24.176;2023-02-13T19:06:31;8.73;;;2.40;;
27269;SDS011;14769;56.934;24.176;2023-02-13T19:07:33;6.85;;;1.90;;
27269;SDS011;14769;56.934;24.176;2023-02-13T19:08:36;8.00;;;2.13;;
27269;SDS011;14769;56.934;24.176;2023-02-13T19:09:38;5.88;;;2.00;;
27269;SDS011;14769;56.934;24.176;2023-02-13T19:10:40;4.45;;;2.28;;
27269;SDS011;14769;56.934;24.176;2023-02-13T19:11:42;5.28;;;2.42;;
27269;SDS011;14769;56.934;24.176;2023-02-13T19:12:44;6.72;;;2.40;;
27269;SDS011;14769;56.934;24.176;2023-02-13T19:13:46;7.53;;;2.25;;
27269;SDS011;14769;56.934;24.176;2023-02-13T19:14:48;5.20;;;2.38;;
27269;SDS011;14769;56.934;24.176;2023-02-13T19:15:50;5.38;;;2.58;;
27269;SDS011;14769;56.934;24.176;2023-02-13T19:16:52;6.85;;;3.25;;
27269;SDS011;14769;56.934;24.176;2023-02-13T19:17:54;6.25;;;2.63;;
27269;SDS011;14769;56.934;24.176;2023-02-13T19:18:58;9.82;;;3.03;;
27269;SDS011;14769;56.934;24.176;2023-02-13T19:20:02;9.27;;;3.30;;
27269;SDS011;14769;56.934;24.176;2023-02-13T19:21:05;9.50;;;3.67;;
27269;SDS011;14769;56.934;24.176;2023-02-13T19:22:07;11.02;;;3.28;;
27269;SDS011;14769;56.934;24.176;2023-02-13T19:23:08;7.95;;;3.50;;
27269;SDS011;14769;56.934;24.176;2023-02-13T19:24:10;10.15;;;3.38;;
27269;SDS011;14769;56.934;24.176;2023-02-13T19:25:15;5.22;;;3.20;;
27269;SDS011;14769;56.934;24.176;2023-02-13T19:26:18;5.63;;;2.95;;
27269;SDS011;14769;56.934;24.176;2023-02-13T19:27:24;6.13;;;3.00;;
27269;SDS011;14769;56.934;24.176;2023-02-13T19:28:25;5.85;;;3.67;;
27269;SDS011;14769;56.934;24.176;2023-02-13T19:29:27;11.63;;;4.40;;
27269;SDS011;14769;56.934;24.176;2023-02-13T19:30:29;10.93;;;4.57;;
27269;SDS011;14769;56.934;24.176;2023-02-13T19:31:31;9.77;;;4.28;;
27269;SDS011;14769;56.934;24.176;2023-02-13T19:32:34;13.45;;;5.00;;
27269;SDS011;14769;56.934;24.176;2023-02-13T19:33:36;12.05;;;5.75;;
27269;SDS011;14769;56.934;24.176;2023-02-13T19:34:39;10.57;;;5.45;;
27269;SDS011;14769;56.934;24.176;2023-02-13T19:35:41;8.35;;;5.28;;
27269;SDS011;14769;56.934;24.176;2023-02-13T19:36:43;13.68;;;6.65;;
27269;SDS011;14769;56.934;24.176;2023-02-13T19:37:45;12.85;;;6.53;;
27269;SDS011;14769;56.934;24.176;2023-02-13T19:38:51;15.77;;;6.10;;
27269;SDS011;14769;56.934;24.176;2023-02-13T19:39:57;14.43;;;6.93;;
27269;SDS011;14769;56.934;24.176;2023-02-13T19:41:02;17.98;;;7.85;;
27269;SDS011;14769;56.934;24.176;2023-02-13T19:42:07;13.95;;;8.18;;
27269;SDS011;14769;56.934;24.176;2023-02-13T19:43:09;14.73;;;8.52;;
27269;SDS011;14769;56.934;24.176;2023-02-13T19:44:11;18.10;;;9.82;;
27269;SDS011;14769;56.934;24.176;2023-02-13T19:45:13;20.83;;;11.90;;
27269;SDS011;14769;56.934;24.176;2023-02-13T19:46:17;23.20;;;10.90;;
27269;SDS011;14769;56.934;24.176;2023-02-13T19:47:20;19.10;;;11.15;;
27269;SDS011;14769;56.934;24.176;2023-02-13T19:48:22;19.20;;;10.70;;
27269;SDS011;14769;56.934;24.176;2023-02-13T19:49:24;22.27;;;12.02;;
27269;SDS011;14769;56.934;24.176;2023-02-13T19:50:26;18.05;;;10.45;;
27269;SDS011;14769;56.934;24.176;2023-02-13T19:51:29;22.02;;;11.00;;
27269;SDS011;14769;56.934;24.176;2023-02-13T19:52:32;23.88;;;13.43;;
27269;SDS011;14769;56.934;24.176;2023-02-13T19:53:34;18.55;;;11.80;;
27269;SDS011;14769;56.934;24.176;2023-02-13T19:54:38;19.20;;;11.60;;
27269;SDS011;14769;56.934;24.176;2023-02-13T19:56:06;21.65;;;12.60;;
27269;SDS011;14769;56.934;24.176;2023-02-13T19:57:09;18.90;;;11.88;;
27269;SDS011;14769;56.934;24.176;2023-02-13T19:58:10;28.02;;;12.20;;
27269;SDS011;14769;56.934;24.176;2023-02-13T19:59:12;19.05;;;12.88;;
27269;SDS011;14769;56.934;24.176;2023-02-13T20:00:14;21.48;;;12.38;;
27269;SDS011;14769;56.934;24.176;2023-02-13T20:01:18;20.98;;;12.90;;
27269;SDS011;14769;56.934;24.176;2023-02-13T20:02:21;21.42;;;12.82;;
27269;SDS011;14769;56.934;24.176;2023-02-13T20:03:23;23.38;;;11.68;;
27269;SDS011;14769;56.934;24.176;2023-02-13T20:04:25;17.08;;;10.88;;
27269;SDS011;14769;56.934;24.176;2023-02-13T20:05:27;18.10;;;11.20;;
27269;SDS011;14769;56.934;24.176;2023-02-13T20:06:30;18.65;;;10.98;;
27269;SDS011;14769;56.934;24.176;2023-02-13T20:07:35;16.90;;;10.65;;
27269;SDS011;14769;56.934;24.176;2023-02-13T20:08:36;16.38;;;9.70;;
27269;SDS011;14769;56.934;24.176;2023-02-13T20:09:41;17.33;;;10.23;;
27269;SDS011;14769;56.934;24.176;2023-02-13T20:10:43;17.00;;;10.30;;
27269;SDS011;14769;56.934;24.176;2023-02-13T20:11:45;19.48;;;11.10;;
27269;SDS011;14769;56.934;24.176;2023-02-13T20:12:47;18.98;;;9.55;;
27269;SDS011;14769;56.934;24.176;2023-02-13T20:13:54;10.60;;;6.55;;
27269;SDS011;14769;56.934;24.176;2023-02-13T20:14:57;12.48;;;7.20;;
27269;SDS011;14769;56.934;24.176;2023-02-13T20:16:02;13.23;;;8.50;;
27269;SDS011;14769;56.934;24.176;2023-02-13T20:17:05;15.05;;;8.40;;
27269;SDS011;14769;56.934;24.176;2023-02-13T20:18:07;19.65;;;9.32;;
27269;SDS011;14769;56.934;24.176;2023-02-13T20:19:09;12.95;;;7.75;;
27269;SDS011;14769;56.934;24.176;2023-02-13T20:20:13;14.10;;;8.45;;
27269;SDS011;14769;56.934;24.176;2023-02-13T20:21:16;11.63;;;7.60;;
27269;SDS011;14769;56.934;24.176;2023-02-13T20:22:19;11.68;;;7.28;;
27269;SDS011;14769;56.934;24.176;2023-02-13T20:23:21;12.80;;;6.85;;
27269;SDS011;14769;56.934;24.176;2023-02-13T20:24:23;9.43;;;5.70;;
27269;SDS011;14769;56.934;24.176;2023-02-13T20:25:25;10.75;;;5.45;;
27269;SDS011;14769;56.934;24.176;2023-02-13T20:26:32;7.32;;;4.10;;
27269;SDS011;14769;56.934;24.176;2023-02-13T20:27:35;9.35;;;4.88;;
27269;SDS011;14769;56.934;24.176;2023-02-13T20:28:43;7.45;;;3.50;;
27269;SDS011;14769;56.934;24.176;2023-02-13T20:29:46;7.95;;;3.67;;
27269;SDS011;14769;56.934;24.176;2023-02-13T20:30:48;9.65;;;3.50;;
27269;SDS011;14769;56.934;24.176;2023-02-13T20:31:50;5.82;;;2.70;;
27269;SDS011;14769;56.934;24.176;2023-02-13T20:32:53;5.78;;;2.17;;
27269;SDS011;14769;56.934;24.176;2023-02-13T20:33:55;5.85;;;2.25;;
27269;SDS011;14769;56.934;24.176;2023-02-13T20:34:58;4.32;;;2.50;;
27269;SDS011;14769;56.934;24.176;2023-02-13T20:36:06;4.55;;;1.65;;
27269;SDS011;14769;56.934;24.176;2023-02-13T20:37:12;5.20;;;1.85;;
27269;SDS011;14769;56.934;24.176;2023-02-13T20:38:16;3.35;;;1.52;;
27269;SDS011;14769;56.934;24.176;2023-02-13T20:39:18;6.18;;;2.10;;
27269;SDS011;14769;56.934;24.176;2023-02-13T20:40:20;6.80;;;1.55;;
27269;SDS011;14769;56.934;24.176;2023-02-13T20:41:23;6.40;;;1.75;;
27269;SDS011;14769;56.934;24.176;2023-02-13T20:42:27;5.75;;;1.25;;
27269;SDS011;14769;56.934;24.176;2023-02-13T20:43:29;7.97;;;1.67;;
27269;SDS011;14769;56.934;24.176;2023-02-13T20:44:32;4.07;;;1.80;;
27269;SDS011;14769;56.934;24.176;2023-02-13T20:45:34;6.35;;;1.52;;
27269;SDS011;14769;56.934;24.176;2023-02-13T20:46:37;6.25;;;2.00;;
27269;SDS011;14769;56.934;24.176;2023-02-13T20:47:40;5.72;;;1.50;;
27269;SDS011;14769;56.934;24.176;2023-02-13T20:48:46;3.50;;;1.48;;
27269;SDS011;14769;56.934;24.176;2023-02-13T20:49:48;7.70;;;1.20;;
27269;SDS011;14769;56.934;24.176;2023-02-13T20:51:01;4.40;;;1.77;;
27269;SDS011;14769;56.934;24.176;2023-02-13T20:52:05;9.35;;;1.63;;
27269;SDS011;14769;56.934;24.176;2023-02-13T20:53:07;6.43;;;1.52;;
27269;SDS011;14769;56.934;24.176;2023-02-13T20:54:10;5.60;;;1.40;;
27269;SDS011;14769;56.934;24.176;2023-02-13T20:55:12;5.32;;;1.52;;
27269;SDS011;14769;56.934;24.176;2023-02-13T20:56:15;4.28;;;1.35;;
27269;SDS011;14769;56.934;24.176;2023-02-13T20:57:20;6.38;;;1.30;;
27269;SDS011;14769;56.934;24.176;2023-02-13T20:58:24;5.82;;;1.80;;
27269;SDS011;14769;56.934;24.176;2023-02-13T20:59:26;8.07;;;1.80;;
27269;SDS011;14769;56.934;24.176;2023-02-13T21:00:28;5.60;;;1.60;;
27269;SDS011;14769;56.934;24.176;2023-02-13T21:01:32;7.15;;;1.83;;
27269;SDS011;14769;56.934;24.176;2023-02-13T21:02:36;11.00;;;1.58;;
27269;SDS011;14769;56.934;24.176;2023-02-13T21:03:39;5.28;;;2.00;;
27269;SDS011;14769;56.934;24.176;2023-02-13T21:04:42;4.00;;;1.50;;
27269;SDS011;14769;56.934;24.176;2023-02-13T21:05:45;4.35;;;1.38;;
27269;SDS011;14769;56.934;24.176;2023-02-13T21:06:47;3.25;;;1.60;;
27269;SDS011;14769;56.934;24.176;2023-02-13T21:07:49;7.47;;;1.65;;
27269;SDS011;14769;56.934;24.176;2023-02-13T21:08:52;10.50;;;1.65;;
27269;SDS011;14769;56.934;24.176;2023-02-13T21:09:54;4.55;;;1.15;;
27269;SDS011;14769;56.934;24.176;2023-02-13T21:11:03;6.00;;;1.50;;
27269;SDS011;14769;56.934;24.176;2023-02-13T21:12:06;5.95;;;1.30;;